createdAt,value
2023-02-16T00:04:00.245Z,22.40
2023-02-16T00:08:02.074Z,24.57
2023-02-16T00:12:15.920Z,23.73
2023-02-16T00:16:19.181Z,28.47
2023-02-16T00:20:20.820Z,25.87
2023-02-16T00:24:23.206Z,25.37
2023-02-16T00:28:25.986Z,24.10
2023-02-16T00:32:27.438Z,25.87
2023-02-16T00:36:28.859Z,23.23
2023-02-16T00:40:30.265Z,26.20
2023-02-16T00:44:36.202Z,23.93
2023-02-16T00:48:37.537Z,24.17
2023-02-16T00:52:40.569Z,24.43
2023-02-16T00:56:42.740Z,25.70
2023-02-16T01:00:48.949Z,21.67
2023-02-16T01:04:50.687Z,24.00
2023-02-16T01:08:54.823Z,23.83
2023-02-16T01:12:56.445Z,22.23
2023-02-16T01:16:59.234Z,25.27
2023-02-16T01:21:00.681Z,23.80
2023-02-16T01:25:02.127Z,23.20
2023-02-16T01:29:03.489Z,24.40
2023-02-16T01:33:06.214Z,24.33
2023-02-16T01:37:14.176Z,21.93
2023-02-16T01:41:25.516Z,22.70
2023-02-16T01:45:32.283Z,24.43
2023-02-16T01:49:35.213Z,24.73
2023-02-16T01:53:42.641Z,26.17
2023-02-16T01:57:46.984Z,26.07
2023-02-16T02:01:54.546Z,24.83
2023-02-16T02:05:57.405Z,22.07
2023-02-16T02:10:02.943Z,27.47
2023-02-16T02:14:09.272Z,23.27
2023-02-16T02:18:10.708Z,23.57
2023-02-16T02:22:47.883Z,21.77
2023-02-16T02:27:11.420Z,23.63
2023-02-16T02:31:20.125Z,23.07
2023-02-16T02:35:35.738Z,24.87
2023-02-16T02:39:46.348Z,22.50
2023-02-16T02:43:55.852Z,22.87
2023-02-16T02:47:57.480Z,22.53
2023-02-16T02:51:59.484Z,24.03
2023-02-16T02:56:02.696Z,22.10
2023-02-16T03:00:10.291Z,26.40
2023-02-16T03:04:15.479Z,25.47
2023-02-16T03:08:22.427Z,24.43
2023-02-16T03:12:23.817Z,25.07
2023-02-16T03:16:31.462Z,25.93
2023-02-16T03:20:32.913Z,25.93
2023-02-16T03:24:34.395Z,26.67
2023-02-16T03:28:38.964Z,34.93
2023-02-16T03:32:42.265Z,28.13
2023-02-16T03:36:46.797Z,29.43
2023-02-16T03:40:49.762Z,28.23
2023-02-16T03:44:51.852Z,26.20
2023-02-16T03:48:54.580Z,26.27
2023-02-16T03:52:56.975Z,32.37
2023-02-16T03:56:58.409Z,28.60
2023-02-16T04:00:59.807Z,24.90
2023-02-16T04:05:02.533Z,28.30
2023-02-16T04:09:04.117Z,26.27
2023-02-16T04:13:05.661Z,27.57
2023-02-16T04:17:07.135Z,26.90
2023-02-16T04:21:09.986Z,27.40
2023-02-16T04:25:11.863Z,23.60
2023-02-16T04:29:13.197Z,24.20
2023-02-16T04:33:14.550Z,25.03
2023-02-16T04:37:17.295Z,28.67
2023-02-16T04:41:18.694Z,31.67
2023-02-16T04:45:20.123Z,28.93
2023-02-16T04:49:22.083Z,28.43
2023-02-16T04:53:24.790Z,30.67
2023-02-16T04:57:26.164Z,27.03
2023-02-16T05:01:28.297Z,29.83
2023-02-16T05:05:29.767Z,25.30
2023-02-16T05:09:32.523Z,27.90
2023-02-16T05:13:34.392Z,26.93
2023-02-16T05:17:35.762Z,24.27
2023-02-16T05:21:37.459Z,26.97
2023-02-16T05:25:40.222Z,28.20
2023-02-16T05:29:41.655Z,30.03
2023-02-16T05:33:43.018Z,25.80
2023-02-16T05:37:44.427Z,26.80
2023-02-16T05:41:47.308Z,23.80
2023-02-16T05:45:48.680Z,25.37
2023-02-16T05:49:51.055Z,24.63
2023-02-16T05:53:52.458Z,28.23
2023-02-16T05:57:55.213Z,25.87
2023-02-16T06:01:56.670Z,27.53
2023-02-16T06:06:00.308Z,27.80
2023-02-16T06:10:01.662Z,29.77
2023-02-16T06:14:06.426Z,27.00
2023-02-16T06:18:07.817Z,33.07
2023-02-16T06:22:09.274Z,28.43
2023-02-16T06:26:10.669Z,28.07
2023-02-16T06:30:13.805Z,31.80
2023-02-16T06:34:15.243Z,32.97
2023-02-16T06:38:16.594Z,29.77
2023-02-16T06:42:17.925Z,30.67
2023-02-16T06:46:20.623Z,31.50
2023-02-16T06:50:22.110Z,30.13
2023-02-16T06:54:23.539Z,30.33
2023-02-16T06:58:24.924Z,27.83
2023-02-16T07:02:27.683Z,29.13
2023-02-16T07:06:29.136Z,29.40
2023-02-16T07:10:40.408Z,30.43
2023-02-16T07:14:50.212Z,29.57
2023-02-16T07:18:52.896Z,31.33
2023-02-16T07:22:54.298Z,26.77
2023-02-16T07:26:55.741Z,32.17
2023-02-16T07:30:57.199Z,31.50
2023-02-16T07:34:59.901Z,29.43
2023-02-16T07:39:01.394Z,27.10
2023-02-16T07:43:04.395Z,36.10
2023-02-16T07:47:05.888Z,31.93
2023-02-16T07:51:08.717Z,29.27
2023-02-16T07:55:10.808Z,32.40
2023-02-16T07:59:14.783Z,30.30
2023-02-16T08:03:16.285Z,29.43
2023-02-16T08:07:19.818Z,33.70
2023-02-16T08:11:23.443Z,30.63
2023-02-16T08:15:24.823Z,27.47
2023-02-16T08:19:26.675Z,30.70
2023-02-16T08:23:29.711Z,32.10
2023-02-16T08:27:31.214Z,31.13
2023-02-16T08:31:35.104Z,35.07
2023-02-16T08:35:38.052Z,35.03
2023-02-16T08:39:40.816Z,27.97
2023-02-16T08:43:42.524Z,30.17
2023-02-16T08:47:44.095Z,30.80
2023-02-16T08:51:48.468Z,30.63
2023-02-16T08:55:55.544Z,31.83
2023-02-16T08:59:56.917Z,31.53
2023-02-16T09:03:58.520Z,29.57
2023-02-16T09:07:59.935Z,29.70
2023-02-16T09:12:02.640Z,26.80
2023-02-16T09:16:05.030Z,28.50
2023-02-16T09:20:07.990Z,31.53
2023-02-16T09:24:09.461Z,30.00
2023-02-16T09:28:12.248Z,32.20
2023-02-16T09:32:13.598Z,29.23
2023-02-16T09:36:14.964Z,29.93
2023-02-16T09:40:16.800Z,23.60
2023-02-16T09:44:33.934Z,24.70
2023-02-16T09:48:39.999Z,24.10
2023-02-16T09:52:48.495Z,28.80
2023-02-16T09:56:56.893Z,30.77
2023-02-16T10:01:06.955Z,28.23
2023-02-16T10:05:17.166Z,29.73
2023-02-16T10:09:20.334Z,29.43
2023-02-16T10:13:28.953Z,29.70
2023-02-16T10:17:41.466Z,30.47
2023-02-16T10:21:47.166Z,27.57
2023-02-16T10:25:54.537Z,26.50
2023-02-16T10:29:56.284Z,30.97
2023-02-16T10:34:23.066Z,31.30
2023-02-16T10:38:31.880Z,28.00
2023-02-16T10:42:38.856Z,31.97
2023-02-16T10:46:44.797Z,29.03
2023-02-16T10:50:55.637Z,29.67
2023-02-16T10:54:57.086Z,27.73
2023-02-16T10:59:01.128Z,30.60
2023-02-16T11:03:03.283Z,29.23
2023-02-16T11:07:08.390Z,31.93
2023-02-16T11:11:10.487Z,26.73
2023-02-16T11:15:24.038Z,31.73
2023-02-16T11:19:25.878Z,32.57
2023-02-16T11:23:30.671Z,30.43
2023-02-16T11:27:33.062Z,27.77
2023-02-16T11:31:37.479Z,38.60
2023-02-16T11:35:42.904Z,32.50
2023-02-16T11:39:52.745Z,34.43
2023-02-16T11:43:55.796Z,29.60
2023-02-16T11:48:00.078Z,32.67
2023-02-16T11:52:19.075Z,31.23
2023-02-16T11:56:25.033Z,32.53
2023-02-16T12:00:26.509Z,31.37
2023-02-16T12:04:42.941Z,28.73
2023-02-16T12:08:59.254Z,32.57
2023-02-16T12:13:14.494Z,27.23
2023-02-16T12:17:26.930Z,29.93
2023-02-16T12:21:34.892Z,33.03
2023-02-16T12:25:39.251Z,30.87
2023-02-16T12:29:49.791Z,34.50
2023-02-16T12:34:15.104Z,30.73
2023-02-16T12:38:31.056Z,36.97
2023-02-16T12:42:48.281Z,33.53
2023-02-16T12:46:58.953Z,32.10
2023-02-16T12:51:03.540Z,31.50
2023-02-16T12:55:17.183Z,30.10
2023-02-16T12:59:24.576Z,28.93
2023-02-16T13:03:34.816Z,25.27
2023-02-16T13:07:39.280Z,29.20
2023-02-16T13:11:46.287Z,26.40
2023-02-16T13:15:50.676Z,23.73
2023-02-16T13:19:53.447Z,27.97
2023-02-16T13:24:01.915Z,27.53
2023-02-16T13:28:13.217Z,20.87
2023-02-16T13:32:31.024Z,17.40
2023-02-16T13:37:00.524Z,16.80
2023-02-16T13:41:44.711Z,13.47
2023-02-16T13:45:48.208Z,16.93
2023-02-16T13:49:56.851Z,14.67
2023-02-16T13:54:01.304Z,17.73
2023-02-16T13:58:06.286Z,15.70
2023-02-16T14:02:12.344Z,15.90
2023-02-16T14:06:32.945Z,12.07
2023-02-16T14:11:04.113Z,13.27
2023-02-16T14:15:16.379Z,19.43
2023-02-16T14:19:22.312Z,17.27
2023-02-16T14:23:29.248Z,12.47
2023-02-16T14:27:44.052Z,12.90
2023-02-16T14:31:53.695Z,14.17
2023-02-16T14:36:14.605Z,13.80
2023-02-16T14:40:22.160Z,11.43
2023-02-16T14:44:39.895Z,14.77
2023-02-16T14:49:09.317Z,14.43
2023-02-16T14:53:40.454Z,10.60
2023-02-16T14:57:47.543Z,13.13
2023-02-16T15:01:50.312Z,17.23
2023-02-16T15:05:56.311Z,14.70
2023-02-16T15:09:58.686Z,11.93
2023-02-16T15:14:06.802Z,10.90
2023-02-16T15:18:15.754Z,11.10
2023-02-16T15:22:21.485Z,12.07
2023-02-16T15:26:24.729Z,11.57
2023-02-16T15:30:28.534Z,10.87
2023-02-16T15:34:34.840Z,10.83
2023-02-16T15:38:38.127Z,9.97
2023-02-16T15:42:43.020Z,9.60
2023-02-16T15:46:44.422Z,9.93
2023-02-16T15:50:48.077Z,11.20
2023-02-16T15:54:50.201Z,12.73
2023-02-16T15:58:51.906Z,9.70
2023-02-16T16:02:55.397Z,10.40
2023-02-16T16:06:58.803Z,9.60
2023-02-16T16:11:00.683Z,10.47
2023-02-16T16:15:02.945Z,8.87
2023-02-16T16:19:13.883Z,9.93
2023-02-16T16:23:26.773Z,10.00
2023-02-16T16:27:30.861Z,9.67
2023-02-16T16:31:42.681Z,11.17
2023-02-16T16:35:46.846Z,8.23
2023-02-16T16:40:01.286Z,10.37
2023-02-16T16:44:02.931Z,8.17
2023-02-16T16:48:10.523Z,12.43
2023-02-16T16:52:11.929Z,8.77
2023-02-16T16:56:14.816Z,9.43
2023-02-16T17:00:17.694Z,12.20
2023-02-16T17:04:19.219Z,10.13
2023-02-16T17:08:20.645Z,9.43
2023-02-16T17:12:24.693Z,9.53
2023-02-16T17:16:27.911Z,9.73
2023-02-16T17:20:29.474Z,9.00
2023-02-16T17:24:30.875Z,13.10
2023-02-16T17:28:33.880Z,10.53
2023-02-16T17:32:35.328Z,10.37
2023-02-16T17:36:37.265Z,12.63
2023-02-16T17:40:39.422Z,10.20
2023-02-16T17:44:42.161Z,12.37
2023-02-16T17:48:43.980Z,12.00
2023-02-16T17:52:45.476Z,11.67
2023-02-16T17:56:47.360Z,10.27
2023-02-16T18:00:51.481Z,10.70
2023-02-16T18:04:52.922Z,12.47
2023-02-16T18:08:54.295Z,11.87
2023-02-16T18:12:55.675Z,10.93
2023-02-16T18:16:58.873Z,13.50
2023-02-16T18:21:00.402Z,16.23
2023-02-16T18:25:01.777Z,11.73
2023-02-16T18:29:03.347Z,12.10
2023-02-16T18:33:06.038Z,17.97
2023-02-16T18:37:07.425Z,12.73
2023-02-16T18:41:09.338Z,13.43
2023-02-16T18:45:11.319Z,13.17
2023-02-16T18:49:14.091Z,12.20
2023-02-16T18:53:15.680Z,16.53
2023-02-16T18:57:17.113Z,11.70
2023-02-16T19:01:25.991Z,11.73
2023-02-16T19:05:28.858Z,12.80
2023-02-16T19:09:30.252Z,14.43
2023-02-16T19:13:31.624Z,13.23
2023-02-16T19:17:33.079Z,13.80
2023-02-16T19:21:35.835Z,14.23
2023-02-16T19:25:37.211Z,16.67
2023-02-16T19:29:38.661Z,11.23
2023-02-16T19:33:41.442Z,10.27
2023-02-16T19:37:50.290Z,14.17
2023-02-16T19:41:51.694Z,10.80
2023-02-16T19:45:53.145Z,8.13
2023-02-16T19:49:54.741Z,8.17
2023-02-16T19:53:58.555Z,8.57
2023-02-16T19:57:59.931Z,11.80
2023-02-16T20:02:01.387Z,9.13
2023-02-16T20:06:12.861Z,10.40
2023-02-16T20:10:15.579Z,7.17
2023-02-16T20:14:17.281Z,5.97
2023-02-16T20:18:18.629Z,7.10
2023-02-16T20:22:19.973Z,6.97
2023-02-16T20:26:25.437Z,8.67
2023-02-16T20:30:26.891Z,8.03
2023-02-16T20:34:28.348Z,4.97
2023-02-16T20:38:29.732Z,6.73
2023-02-16T20:42:32.453Z,6.87
2023-02-16T20:46:35.087Z,5.53
2023-02-16T20:50:36.910Z,8.07
2023-02-16T20:54:38.350Z,7.80
2023-02-16T20:58:42.375Z,8.10
2023-02-16T21:02:43.790Z,7.77
2023-02-16T21:06:45.302Z,7.47
2023-02-16T21:10:46.987Z,8.30
2023-02-16T21:14:49.779Z,5.83
2023-02-16T21:18:51.507Z,6.47
2023-02-16T21:22:52.902Z,6.77
2023-02-16T21:26:54.553Z,8.10
2023-02-16T21:31:02.503Z,8.13
2023-02-16T21:35:04.270Z,7.03
2023-02-16T21:39:05.617Z,6.27
2023-02-16T21:43:06.999Z,9.80
2023-02-16T21:47:11.164Z,6.00
2023-02-16T21:51:13.500Z,7.70
2023-02-16T21:55:14.907Z,11.67
2023-02-16T21:59:19.185Z,7.23
2023-02-16T22:03:23.676Z,8.73
2023-02-16T22:07:25.036Z,7.77
2023-02-16T22:11:26.512Z,8.97
2023-02-16T22:15:27.943Z,9.77
2023-02-16T22:19:30.665Z,9.67
2023-02-16T22:23:32.202Z,12.27
2023-02-16T22:27:33.560Z,12.30
2023-02-16T22:31:35.753Z,9.27
2023-02-16T22:35:38.542Z,8.43
2023-02-16T22:39:39.916Z,8.93
2023-02-16T22:43:41.275Z,6.87
2023-02-16T22:47:42.651Z,8.60
2023-02-16T22:51:45.418Z,7.10
2023-02-16T22:55:46.848Z,9.27
2023-02-16T22:59:48.213Z,7.23
2023-02-16T23:03:51.556Z,14.27
2023-02-16T23:07:54.219Z,9.73
2023-02-16T23:11:55.570Z,8.90
2023-02-16T23:16:02.416Z,8.23
2023-02-16T23:20:04.999Z,9.30
2023-02-16T23:24:13.770Z,8.00
2023-02-16T23:28:16.977Z,8.60
2023-02-16T23:32:18.372Z,8.23
2023-02-16T23:36:19.765Z,9.37
2023-02-16T23:40:22.476Z,7.93
2023-02-16T23:44:23.802Z,9.67
2023-02-16T23:48:25.658Z,7.90
2023-02-16T23:52:27.028Z,7.80
2023-02-16T23:56:29.743Z,9.23
